Terminal Aerodrome Forecast
Issued by NWS Central Illinois

Home | Current Version | Previous Version | Text Only | Print | Product List | Glossary On
Versions: 1 2 3 4 5 6 7 8 9 10 11 12 13 14 15 16 17 18 19 20 21 22
000
FTUS43 KILX 231700
TAFSPI
TAF
KSPI 231740Z 2318/2418 15015G20KT P6SM -RA BKN014 OVC020
      TEMPO 2318/2320 4SM -SHRA BR BKN010
     FM232000 15013G18KT 6SM -SHRA BR OVC010
      TEMPO 2320/2324 2SM SHRA BR OVC005
     FM240000 17010KT 2SM SHRA BR OVC004
     FM240600 22010KT 4SM -SHRA BR OVC004
     FM240900 26013G21KT 3SM -RADZ BR OVC007
     FM241400 26019G29KT 3SM -SN BR OVC014=

USA.gov is the U.S. government's official web portal to all federal, state and local government web resources and services.